Terminal Aerodrome Forecast
Issued by NWS Brownsville, TX

Home | Current Version | Previous Version | Text Only | Print | Product List | Glossary On
Versions: 1 2 3 4 5 6 7 8 9 10 11 12 13 14 15 16 17 18 19 20
000
FTUS44 KBRO 211100
TAFBRO
TAF
KBRO 211126Z 2112/2212 13003KT P6SM BKN023
     FM211500 14012KT P6SM BKN025
     FM211800 15014G21KT P6SM BKN035
     FM220200 13009KT P6SM BKN030
     FM220900 15005KT P6SM BKN015=

USA.gov is the U.S. government's official web portal to all federal, state and local government web resources and services.